Butterfield, Minnesota
Current Conditions -  °F | °C
As of 11:15 AM on Wednesday 26 Nov 2014 (Local Time) from KJYG Reporting Station
Light Snow Light Snow  
Wind Chill: 13°   Ceiling: 200
Heat Index: 25°   Visibility: 0.75mi
Dew Point: 23°   Wind: 13mph
Humidity: 93%   Direction: 350°N
Pressure: 30.15"   Gusts: NA
Location:  43.96°N, 94.79°W
Report Text: KJYG 261715Z AUTO 35011KT 3/4SM -SN OVC002 M04/M05 A3015 RMK AO2
Loading
Personal Weather Stations






























Interactive Weather Map New forecast layout! Learn more

10-Day Weather Forecast

Advertisements
Track Severe Weather on mobile